sensor_id;sensor_type;location;lat;lon;timestamp;P1;durP1;ratioP1;P2;durP2;ratioP2
63398;SDS011;49533;-34.520;150.798;2023-07-16T00:02:02;4.40;;;1.42;;
63398;SDS011;49533;-34.520;150.798;2023-07-16T00:04:31;3.17;;;1.65;;
63398;SDS011;49533;-34.520;150.798;2023-07-16T00:07:00;3.40;;;1.50;;
63398;SDS011;49533;-34.520;150.798;2023-07-16T00:09:27;4.35;;;1.65;;
63398;SDS011;49533;-34.520;150.798;2023-07-16T00:11:55;4.80;;;1.70;;
63398;SDS011;49533;-34.520;150.798;2023-07-16T00:14:23;5.90;;;2.00;;
63398;SDS011;49533;-34.520;150.798;2023-07-16T00:16:50;3.13;;;1.38;;
63398;SDS011;49533;-34.520;150.798;2023-07-16T00:19:17;4.70;;;1.63;;
63398;SDS011;49533;-34.520;150.798;2023-07-16T00:21:44;2.40;;;1.83;;
63398;SDS011;49533;-34.520;150.798;2023-07-16T00:24:11;3.50;;;1.30;;
63398;SDS011;49533;-34.520;150.798;2023-07-16T00:26:38;2.67;;;1.55;;
63398;SDS011;49533;-34.520;150.798;2023-07-16T00:29:05;2.60;;;1.58;;
63398;SDS011;49533;-34.520;150.798;2023-07-16T00:31:32;4.20;;;1.23;;
63398;SDS011;49533;-34.520;150.798;2023-07-16T00:34:00;2.63;;;1.40;;
63398;SDS011;49533;-34.520;150.798;2023-07-16T00:36:27;6.18;;;1.73;;
63398;SDS011;49533;-34.520;150.798;2023-07-16T00:38:54;2.67;;;1.33;;
63398;SDS011;49533;-34.520;150.798;2023-07-16T00:41:21;3.95;;;1.40;;
63398;SDS011;49533;-34.520;150.798;2023-07-16T00:43:48;4.45;;;1.70;;
63398;SDS011;49533;-34.520;150.798;2023-07-16T00:46:15;7.22;;;1.70;;
63398;SDS011;49533;-34.520;150.798;2023-07-16T00:48:43;4.68;;;1.40;;
63398;SDS011;49533;-34.520;150.798;2023-07-16T00:51:10;4.32;;;1.33;;
63398;SDS011;49533;-34.520;150.798;2023-07-16T00:53:41;2.65;;;1.33;;
63398;SDS011;49533;-34.520;150.798;2023-07-16T00:56:09;3.00;;;1.60;;
63398;SDS011;49533;-34.520;150.798;2023-07-16T00:58:37;8.00;;;2.15;;
63398;SDS011;49533;-34.520;150.798;2023-07-16T01:01:04;6.90;;;2.03;;
63398;SDS011;49533;-34.520;150.798;2023-07-16T01:03:31;5.82;;;1.88;;
63398;SDS011;49533;-34.520;150.798;2023-07-16T01:06:10;3.78;;;1.58;;
63398;SDS011;49533;-34.520;150.798;2023-07-16T01:08:46;5.65;;;1.90;;
63398;SDS011;49533;-34.520;150.798;2023-07-16T01:11:18;8.88;;;2.50;;
63398;SDS011;49533;-34.520;150.798;2023-07-16T01:13:46;7.03;;;2.38;;
63398;SDS011;49533;-34.520;150.798;2023-07-16T01:16:20;5.22;;;2.30;;
63398;SDS011;49533;-34.520;150.798;2023-07-16T01:18:48;8.95;;;2.63;;
63398;SDS011;49533;-34.520;150.798;2023-07-16T01:21:16;5.07;;;1.67;;
63398;SDS011;49533;-34.520;150.798;2023-07-16T01:26:51;4.20;;;2.05;;
63398;SDS011;49533;-34.520;150.798;2023-07-16T01:29:45;6.07;;;2.35;;
63398;SDS011;49533;-34.520;150.798;2023-07-16T01:32:17;6.43;;;2.17;;
63398;SDS011;49533;-34.520;150.798;2023-07-16T01:34:46;9.70;;;2.55;;
63398;SDS011;49533;-34.520;150.798;2023-07-16T01:37:15;4.63;;;2.17;;
63398;SDS011;49533;-34.520;150.798;2023-07-16T01:39:42;6.75;;;2.22;;
63398;SDS011;49533;-34.520;150.798;2023-07-16T01:42:09;4.90;;;2.08;;
63398;SDS011;49533;-34.520;150.798;2023-07-16T01:44:38;8.52;;;2.40;;
63398;SDS011;49533;-34.520;150.798;2023-07-16T01:47:11;6.80;;;2.60;;
63398;SDS011;49533;-34.520;150.798;2023-07-16T01:49:45;9.45;;;2.67;;
63398;SDS011;49533;-34.520;150.798;2023-07-16T01:52:13;9.32;;;3.05;;
63398;SDS011;49533;-34.520;150.798;2023-07-16T01:54:40;6.07;;;2.45;;
63398;SDS011;49533;-34.520;150.798;2023-07-16T01:57:07;8.48;;;2.50;;
63398;SDS011;49533;-34.520;150.798;2023-07-16T01:59:34;3.67;;;1.95;;
63398;SDS011;49533;-34.520;150.798;2023-07-16T02:02:01;10.65;;;2.95;;
63398;SDS011;49533;-34.520;150.798;2023-07-16T02:04:29;3.95;;;1.80;;
63398;SDS011;49533;-34.520;150.798;2023-07-16T02:06:56;5.63;;;2.10;;
63398;SDS011;49533;-34.520;150.798;2023-07-16T02:09:23;8.45;;;2.45;;
63398;SDS011;49533;-34.520;150.798;2023-07-16T02:11:51;7.75;;;2.50;;
63398;SDS011;49533;-34.520;150.798;2023-07-16T02:14:18;10.35;;;3.05;;
63398;SDS011;49533;-34.520;150.798;2023-07-16T02:16:45;6.43;;;2.00;;
63398;SDS011;49533;-34.520;150.798;2023-07-16T02:19:12;6.70;;;2.55;;
63398;SDS011;49533;-34.520;150.798;2023-07-16T02:21:43;9.10;;;2.58;;
63398;SDS011;49533;-34.520;150.798;2023-07-16T02:24:10;5.95;;;2.10;;
63398;SDS011;49533;-34.520;150.798;2023-07-16T02:26:38;7.05;;;2.05;;
63398;SDS011;49533;-34.520;150.798;2023-07-16T02:29:06;8.38;;;2.75;;
63398;SDS011;49533;-34.520;150.798;2023-07-16T02:31:34;5.47;;;2.25;;
63398;SDS011;49533;-34.520;150.798;2023-07-16T02:34:02;3.95;;;2.15;;
63398;SDS011;49533;-34.520;150.798;2023-07-16T02:36:29;5.40;;;2.17;;
63398;SDS011;49533;-34.520;150.798;2023-07-16T02:38:56;7.68;;;2.28;;
63398;SDS011;49533;-34.520;150.798;2023-07-16T02:41:23;7.57;;;2.33;;
63398;SDS011;49533;-34.520;150.798;2023-07-16T02:43:58;7.35;;;2.20;;
63398;SDS011;49533;-34.520;150.798;2023-07-16T02:46:27;4.70;;;2.00;;
63398;SDS011;49533;-34.520;150.798;2023-07-16T02:48:54;5.78;;;2.72;;
63398;SDS011;49533;-34.520;150.798;2023-07-16T02:51:21;6.63;;;2.22;;
63398;SDS011;49533;-34.520;150.798;2023-07-16T02:53:49;5.00;;;2.35;;
63398;SDS011;49533;-34.520;150.798;2023-07-16T02:56:16;5.65;;;2.03;;
63398;SDS011;49533;-34.520;150.798;2023-07-16T02:58:43;6.65;;;2.40;;
63398;SDS011;49533;-34.520;150.798;2023-07-16T03:01:11;6.93;;;2.20;;
63398;SDS011;49533;-34.520;150.798;2023-07-16T03:03:38;5.30;;;1.95;;
63398;SDS011;49533;-34.520;150.798;2023-07-16T03:06:05;8.10;;;2.25;;
63398;SDS011;49533;-34.520;150.798;2023-07-16T03:08:33;5.45;;;2.38;;
63398;SDS011;49533;-34.520;150.798;2023-07-16T03:11:01;10.85;;;3.17;;
63398;SDS011;49533;-34.520;150.798;2023-07-16T03:13:28;7.80;;;2.38;;
63398;SDS011;49533;-34.520;150.798;2023-07-16T03:15:55;6.35;;;2.30;;
63398;SDS011;49533;-34.520;150.798;2023-07-16T03:18:22;6.75;;;1.88;;
63398;SDS011;49533;-34.520;150.798;2023-07-16T03:20:55;5.85;;;2.17;;
63398;SDS011;49533;-34.520;150.798;2023-07-16T03:23:23;11.63;;;1.90;;
63398;SDS011;49533;-34.520;150.798;2023-07-16T03:25:51;7.75;;;2.50;;
63398;SDS011;49533;-34.520;150.798;2023-07-16T03:28:18;8.73;;;2.45;;
63398;SDS011;49533;-34.520;150.798;2023-07-16T03:30:47;6.68;;;2.10;;
63398;SDS011;49533;-34.520;150.798;2023-07-16T03:33:15;5.43;;;2.25;;
63398;SDS011;49533;-34.520;150.798;2023-07-16T03:35:43;12.95;;;2.30;;
63398;SDS011;49533;-34.520;150.798;2023-07-16T03:38:12;10.18;;;2.40;;
63398;SDS011;49533;-34.520;150.798;2023-07-16T03:40:39;6.38;;;2.30;;
63398;SDS011;49533;-34.520;150.798;2023-07-16T03:43:09;14.10;;;2.95;;
63398;SDS011;49533;-34.520;150.798;2023-07-16T03:45:38;11.40;;;2.88;;
63398;SDS011;49533;-34.520;150.798;2023-07-16T03:48:06;7.95;;;2.10;;
63398;SDS011;49533;-34.520;150.798;2023-07-16T03:50:33;7.60;;;2.33;;
63398;SDS011;49533;-34.520;150.798;2023-07-16T03:53:01;8.48;;;2.58;;
63398;SDS011;49533;-34.520;150.798;2023-07-16T03:55:29;8.75;;;2.47;;
63398;SDS011;49533;-34.520;150.798;2023-07-16T03:57:56;5.88;;;2.00;;
63398;SDS011;49533;-34.520;150.798;2023-07-16T04:00:23;8.70;;;2.80;;
63398;SDS011;49533;-34.520;150.798;2023-07-16T04:02:51;8.98;;;2.75;;
63398;SDS011;49533;-34.520;150.798;2023-07-16T04:05:18;9.18;;;2.70;;
63398;SDS011;49533;-34.520;150.798;2023-07-16T04:07:45;8.90;;;2.47;;
63398;SDS011;49533;-34.520;150.798;2023-07-16T04:10:12;7.28;;;2.25;;
63398;SDS011;49533;-34.520;150.798;2023-07-16T04:12:39;5.85;;;2.17;;
63398;SDS011;49533;-34.520;150.798;2023-07-16T04:15:07;14.18;;;2.60;;
63398;SDS011;49533;-34.520;150.798;2023-07-16T04:17:36;12.02;;;2.72;;
63398;SDS011;49533;-34.520;150.798;2023-07-16T04:20:03;46.63;;;5.70;;
63398;SDS011;49533;-34.520;150.798;2023-07-16T04:22:32;36.95;;;4.60;;
63398;SDS011;49533;-34.520;150.798;2023-07-16T04:25:00;18.05;;;3.08;;
63398;SDS011;49533;-34.520;150.798;2023-07-16T04:27:29;13.65;;;2.97;;
63398;SDS011;49533;-34.520;150.798;2023-07-16T04:29:56;11.45;;;2.67;;
63398;SDS011;49533;-34.520;150.798;2023-07-16T04:32:24;11.70;;;2.88;;
63398;SDS011;49533;-34.520;150.798;2023-07-16T04:34:51;19.27;;;3.15;;
63398;SDS011;49533;-34.520;150.798;2023-07-16T04:37:18;8.52;;;2.53;;
63398;SDS011;49533;-34.520;150.798;2023-07-16T04:39:45;10.20;;;2.55;;
63398;SDS011;49533;-34.520;150.798;2023-07-16T04:42:12;7.10;;;2.60;;
63398;SDS011;49533;-34.520;150.798;2023-07-16T04:44:39;8.13;;;2.70;;
63398;SDS011;49533;-34.520;150.798;2023-07-16T04:47:06;5.53;;;2.08;;
63398;SDS011;49533;-34.520;150.798;2023-07-16T04:49:34;6.95;;;2.22;;
63398;SDS011;49533;-34.520;150.798;2023-07-16T04:52:02;8.10;;;2.35;;
63398;SDS011;49533;-34.520;150.798;2023-07-16T04:54:30;7.63;;;2.33;;
63398;SDS011;49533;-34.520;150.798;2023-07-16T04:57:03;8.25;;;2.35;;
63398;SDS011;49533;-34.520;150.798;2023-07-16T04:59:33;10.00;;;2.63;;
63398;SDS011;49533;-34.520;150.798;2023-07-16T05:02:04;8.52;;;2.00;;
63398;SDS011;49533;-34.520;150.798;2023-07-16T05:04:32;7.85;;;2.35;;
63398;SDS011;49533;-34.520;150.798;2023-07-16T05:07:01;5.65;;;2.03;;
63398;SDS011;49533;-34.520;150.798;2023-07-16T05:09:29;7.75;;;2.13;;
63398;SDS011;49533;-34.520;150.798;2023-07-16T05:11:56;6.53;;;1.90;;
63398;SDS011;49533;-34.520;150.798;2023-07-16T05:14:26;7.88;;;2.38;;
63398;SDS011;49533;-34.520;150.798;2023-07-16T05:16:54;7.60;;;2.42;;
63398;SDS011;49533;-34.520;150.798;2023-07-16T05:19:21;4.93;;;1.80;;
63398;SDS011;49533;-34.520;150.798;2023-07-16T05:21:49;6.03;;;1.95;;
63398;SDS011;49533;-34.520;150.798;2023-07-16T05:24:16;6.30;;;2.25;;
63398;SDS011;49533;-34.520;150.798;2023-07-16T05:26:43;8.73;;;2.08;;
63398;SDS011;49533;-34.520;150.798;2023-07-16T05:29:10;8.88;;;2.72;;
63398;SDS011;49533;-34.520;150.798;2023-07-16T05:31:37;10.65;;;2.50;;
63398;SDS011;49533;-34.520;150.798;2023-07-16T05:34:05;9.60;;;2.38;;
63398;SDS011;49533;-34.520;150.798;2023-07-16T05:36:33;25.23;;;3.55;;
63398;SDS011;49533;-34.520;150.798;2023-07-16T05:39:00;11.93;;;2.35;;
63398;SDS011;49533;-34.520;150.798;2023-07-16T05:41:27;6.32;;;2.05;;
63398;SDS011;49533;-34.520;150.798;2023-07-16T05:43:54;10.70;;;2.30;;
63398;SDS011;49533;-34.520;150.798;2023-07-16T05:46:21;14.10;;;2.47;;
63398;SDS011;49533;-34.520;150.798;2023-07-16T05:48:48;10.27;;;2.55;;
63398;SDS011;49533;-34.520;150.798;2023-07-16T05:51:15;7.65;;;1.95;;
63398;SDS011;49533;-34.520;150.798;2023-07-16T05:53:42;5.97;;;2.05;;
63398;SDS011;49533;-34.520;150.798;2023-07-16T05:56:09;8.88;;;2.03;;
63398;SDS011;49533;-34.520;150.798;2023-07-16T05:58:37;27.20;;;3.75;;
63398;SDS011;49533;-34.520;150.798;2023-07-16T06:01:06;10.60;;;2.47;;
63398;SDS011;49533;-34.520;150.798;2023-07-16T06:03:33;25.42;;;3.30;;
63398;SDS011;49533;-34.520;150.798;2023-07-16T06:06:00;9.70;;;2.28;;
63398;SDS011;49533;-34.520;150.798;2023-07-16T06:08:28;4.38;;;1.80;;
63398;SDS011;49533;-34.520;150.798;2023-07-16T06:10:55;12.88;;;2.08;;
63398;SDS011;49533;-34.520;150.798;2023-07-16T06:13:22;3.88;;;2.03;;
63398;SDS011;49533;-34.520;150.798;2023-07-16T06:15:49;4.82;;;1.98;;
63398;SDS011;49533;-34.520;150.798;2023-07-16T06:18:16;5.18;;;2.22;;
63398;SDS011;49533;-34.520;150.798;2023-07-16T06:20:44;9.65;;;2.47;;
63398;SDS011;49533;-34.520;150.798;2023-07-16T06:23:12;8.15;;;2.42;;
63398;SDS011;49533;-34.520;150.798;2023-07-16T06:25:42;10.68;;;2.15;;
63398;SDS011;49533;-34.520;150.798;2023-07-16T06:28:10;7.93;;;1.98;;
63398;SDS011;49533;-34.520;150.798;2023-07-16T06:30:37;8.80;;;2.15;;
63398;SDS011;49533;-34.520;150.798;2023-07-16T06:33:04;6.32;;;2.15;;
63398;SDS011;49533;-34.520;150.798;2023-07-16T06:35:32;6.55;;;2.00;;
63398;SDS011;49533;-34.520;150.798;2023-07-16T06:37:59;10.77;;;2.13;;
63398;SDS011;49533;-34.520;150.798;2023-07-16T06:40:28;7.90;;;1.95;;
63398;SDS011;49533;-34.520;150.798;2023-07-16T06:42:56;5.05;;;1.58;;
63398;SDS011;49533;-34.520;150.798;2023-07-16T06:45:23;5.90;;;1.80;;
63398;SDS011;49533;-34.520;150.798;2023-07-16T06:47:50;5.60;;;1.88;;
63398;SDS011;49533;-34.520;150.798;2023-07-16T06:50:17;6.53;;;2.15;;
63398;SDS011;49533;-34.520;150.798;2023-07-16T06:52:44;7.25;;;2.35;;
63398;SDS011;49533;-34.520;150.798;2023-07-16T06:55:12;7.55;;;2.08;;
63398;SDS011;49533;-34.520;150.798;2023-07-16T06:57:39;9.02;;;2.17;;
63398;SDS011;49533;-34.520;150.798;2023-07-16T07:00:09;7.60;;;1.90;;
63398;SDS011;49533;-34.520;150.798;2023-07-16T07:02:42;14.00;;;2.15;;
63398;SDS011;49533;-34.520;150.798;2023-07-16T07:05:09;10.52;;;2.22;;
63398;SDS011;49533;-34.520;150.798;2023-07-16T07:07:36;4.53;;;1.90;;
63398;SDS011;49533;-34.520;150.798;2023-07-16T07:10:03;5.18;;;2.25;;
63398;SDS011;49533;-34.520;150.798;2023-07-16T07:12:31;4.88;;;1.92;;
63398;SDS011;49533;-34.520;150.798;2023-07-16T07:15:05;5.90;;;2.40;;
63398;SDS011;49533;-34.520;150.798;2023-07-16T07:17:33;5.03;;;1.85;;
63398;SDS011;49533;-34.520;150.798;2023-07-16T07:20:00;3.30;;;1.80;;
63398;SDS011;49533;-34.520;150.798;2023-07-16T07:22:29;5.47;;;1.80;;
63398;SDS011;49533;-34.520;150.798;2023-07-16T07:24:56;3.92;;;1.83;;
63398;SDS011;49533;-34.520;150.798;2023-07-16T07:27:23;6.30;;;1.58;;
63398;SDS011;49533;-34.520;150.798;2023-07-16T07:29:50;4.47;;;1.52;;
63398;SDS011;49533;-34.520;150.798;2023-07-16T07:32:19;6.72;;;1.88;;
63398;SDS011;49533;-34.520;150.798;2023-07-16T07:34:46;7.43;;;2.17;;
63398;SDS011;49533;-34.520;150.798;2023-07-16T07:37:14;4.25;;;1.58;;
63398;SDS011;49533;-34.520;150.798;2023-07-16T07:39:41;4.63;;;1.63;;
63398;SDS011;49533;-34.520;150.798;2023-07-16T07:42:08;2.63;;;1.30;;
63398;SDS011;49533;-34.520;150.798;2023-07-16T07:44:35;5.47;;;2.08;;
63398;SDS011;49533;-34.520;150.798;2023-07-16T07:47:03;3.40;;;1.35;;
63398;SDS011;49533;-34.520;150.798;2023-07-16T07:49:30;3.88;;;1.48;;
63398;SDS011;49533;-34.520;150.798;2023-07-16T07:51:57;3.55;;;1.35;;
63398;SDS011;49533;-34.520;150.798;2023-07-16T07:54:24;3.33;;;1.70;;
63398;SDS011;49533;-34.520;150.798;2023-07-16T07:56:51;3.13;;;1.92;;
63398;SDS011;49533;-34.520;150.798;2023-07-16T07:59:18;3.45;;;1.50;;
63398;SDS011;49533;-34.520;150.798;2023-07-16T08:01:46;4.43;;;1.58;;
63398;SDS011;49533;-34.520;150.798;2023-07-16T08:04:13;4.30;;;1.48;;
63398;SDS011;49533;-34.520;150.798;2023-07-16T08:06:40;3.45;;;1.40;;
63398;SDS011;49533;-34.520;150.798;2023-07-16T08:09:08;2.13;;;1.17;;
63398;SDS011;49533;-34.520;150.798;2023-07-16T08:11:35;3.85;;;1.65;;
63398;SDS011;49533;-34.520;150.798;2023-07-16T08:14:02;2.83;;;1.30;;
63398;SDS011;49533;-34.520;150.798;2023-07-16T08:16:29;2.42;;;1.30;;
63398;SDS011;49533;-34.520;150.798;2023-07-16T08:18:56;4.63;;;1.70;;
63398;SDS011;49533;-34.520;150.798;2023-07-16T08:21:23;3.45;;;1.77;;
63398;SDS011;49533;-34.520;150.798;2023-07-16T08:23:50;3.30;;;1.23;;
63398;SDS011;49533;-34.520;150.798;2023-07-16T08:26:18;3.15;;;1.80;;
63398;SDS011;49533;-34.520;150.798;2023-07-16T08:28:45;4.22;;;1.77;;
63398;SDS011;49533;-34.520;150.798;2023-07-16T08:31:12;3.53;;;1.55;;
63398;SDS011;49533;-34.520;150.798;2023-07-16T08:33:39;3.22;;;1.65;;
63398;SDS011;49533;-34.520;150.798;2023-07-16T08:36:07;3.42;;;1.58;;
63398;SDS011;49533;-34.520;150.798;2023-07-16T08:38:36;3.08;;;1.67;;
63398;SDS011;49533;-34.520;150.798;2023-07-16T08:41:03;2.35;;;1.40;;
63398;SDS011;49533;-34.520;150.798;2023-07-16T08:43:30;3.40;;;1.33;;
63398;SDS011;49533;-34.520;150.798;2023-07-16T08:46:00;3.95;;;1.58;;
63398;SDS011;49533;-34.520;150.798;2023-07-16T08:48:28;2.50;;;1.70;;
63398;SDS011;49533;-34.520;150.798;2023-07-16T08:50:55;3.90;;;1.70;;
63398;SDS011;49533;-34.520;150.798;2023-07-16T08:53:27;3.67;;;1.67;;
63398;SDS011;49533;-34.520;150.798;2023-07-16T08:55:55;6.13;;;1.77;;
63398;SDS011;49533;-34.520;150.798;2023-07-16T08:58:23;2.47;;;1.67;;
63398;SDS011;49533;-34.520;150.798;2023-07-16T09:00:51;2.58;;;1.70;;
63398;SDS011;49533;-34.520;150.798;2023-07-16T09:03:19;3.75;;;1.83;;
63398;SDS011;49533;-34.520;150.798;2023-07-16T09:05:46;3.78;;;1.90;;
63398;SDS011;49533;-34.520;150.798;2023-07-16T09:08:13;5.30;;;2.33;;
63398;SDS011;49533;-34.520;150.798;2023-07-16T09:10:41;2.72;;;1.85;;
63398;SDS011;49533;-34.520;150.798;2023-07-16T09:13:09;2.13;;;1.88;;
63398;SDS011;49533;-34.520;150.798;2023-07-16T09:15:36;4.45;;;2.08;;
63398;SDS011;49533;-34.520;150.798;2023-07-16T09:18:05;4.65;;;2.25;;
63398;SDS011;49533;-34.520;150.798;2023-07-16T09:20:32;6.93;;;2.20;;
63398;SDS011;49533;-34.520;150.798;2023-07-16T09:22:59;3.00;;;2.03;;
63398;SDS011;49533;-34.520;150.798;2023-07-16T09:25:30;6.07;;;2.00;;
63398;SDS011;49533;-34.520;150.798;2023-07-16T09:28:02;4.43;;;2.28;;
63398;SDS011;49533;-34.520;150.798;2023-07-16T09:30:31;4.28;;;2.40;;
63398;SDS011;49533;-34.520;150.798;2023-07-16T09:33:08;3.53;;;2.20;;
63398;SDS011;49533;-34.520;150.798;2023-07-16T09:35:39;3.25;;;2.05;;
63398;SDS011;49533;-34.520;150.798;2023-07-16T09:38:08;2.83;;;1.77;;
63398;SDS011;49533;-34.520;150.798;2023-07-16T09:40:37;2.53;;;1.88;;
63398;SDS011;49533;-34.520;150.798;2023-07-16T09:43:08;3.75;;;2.08;;
63398;SDS011;49533;-34.520;150.798;2023-07-16T09:45:36;4.45;;;1.98;;
63398;SDS011;49533;-34.520;150.798;2023-07-16T09:48:06;4.15;;;2.28;;
63398;SDS011;49533;-34.520;150.798;2023-07-16T09:50:34;3.20;;;2.00;;
63398;SDS011;49533;-34.520;150.798;2023-07-16T09:53:04;4.18;;;2.33;;
63398;SDS011;49533;-34.520;150.798;2023-07-16T09:55:33;3.40;;;2.05;;
63398;SDS011;49533;-34.520;150.798;2023-07-16T09:58:08;4.18;;;2.40;;
63398;SDS011;49533;-34.520;150.798;2023-07-16T10:00:38;3.50;;;2.40;;
63398;SDS011;49533;-34.520;150.798;2023-07-16T10:03:07;5.22;;;2.25;;
63398;SDS011;49533;-34.520;150.798;2023-07-16T10:05:37;3.25;;;2.03;;
63398;SDS011;49533;-34.520;150.798;2023-07-16T10:08:15;3.42;;;1.70;;
63398;SDS011;49533;-34.520;150.798;2023-07-16T10:10:48;5.10;;;2.40;;
63398;SDS011;49533;-34.520;150.798;2023-07-16T10:13:23;2.22;;;1.80;;
63398;SDS011;49533;-34.520;150.798;2023-07-16T10:15:51;3.65;;;2.03;;
63398;SDS011;49533;-34.520;150.798;2023-07-16T10:18:30;3.95;;;2.10;;
63398;SDS011;49533;-34.520;150.798;2023-07-16T10:21:00;3.63;;;2.13;;
63398;SDS011;49533;-34.520;150.798;2023-07-16T10:23:38;3.25;;;1.83;;
63398;SDS011;49533;-34.520;150.798;2023-07-16T10:26:08;2.65;;;2.10;;
63398;SDS011;49533;-34.520;150.798;2023-07-16T10:28:48;2.33;;;1.65;;
63398;SDS011;49533;-34.520;150.798;2023-07-16T10:31:34;3.28;;;1.73;;
63398;SDS011;49533;-34.520;150.798;2023-07-16T10:34:04;4.78;;;1.95;;
63398;SDS011;49533;-34.520;150.798;2023-07-16T10:36:54;4.00;;;1.92;;
63398;SDS011;49533;-34.520;150.798;2023-07-16T10:39:29;3.22;;;1.98;;
63398;SDS011;49533;-34.520;150.798;2023-07-16T10:42:17;3.30;;;1.83;;
63398;SDS011;49533;-34.520;150.798;2023-07-16T10:44:45;3.25;;;1.80;;
63398;SDS011;49533;-34.520;150.798;2023-07-16T10:47:31;2.47;;;1.80;;
63398;SDS011;49533;-34.520;150.798;2023-07-16T10:50:07;2.65;;;1.85;;
63398;SDS011;49533;-34.520;150.798;2023-07-16T10:52:36;3.55;;;1.88;;
63398;SDS011;49533;-34.520;150.798;2023-07-16T10:55:11;3.08;;;1.70;;
63398;SDS011;49533;-34.520;150.798;2023-07-16T10:57:38;3.38;;;1.90;;
63398;SDS011;49533;-34.520;150.798;2023-07-16T11:00:15;3.10;;;1.70;;
63398;SDS011;49533;-34.520;150.798;2023-07-16T11:02:55;2.53;;;1.63;;
63398;SDS011;49533;-34.520;150.798;2023-07-16T11:05:22;2.63;;;1.30;;
63398;SDS011;49533;-34.520;150.798;2023-07-16T11:07:50;3.28;;;1.65;;
63398;SDS011;49533;-34.520;150.798;2023-07-16T11:10:19;2.78;;;1.65;;
63398;SDS011;49533;-34.520;150.798;2023-07-16T11:12:50;2.92;;;1.90;;
63398;SDS011;49533;-34.520;150.798;2023-07-16T11:15:30;4.82;;;1.88;;
63398;SDS011;49533;-34.520;150.798;2023-07-16T11:17:58;2.85;;;1.73;;
63398;SDS011;49533;-34.520;150.798;2023-07-16T11:20:26;2.22;;;1.55;;
63398;SDS011;49533;-34.520;150.798;2023-07-16T11:22:57;2.75;;;1.70;;
63398;SDS011;49533;-34.520;150.798;2023-07-16T11:25:25;3.97;;;1.60;;
63398;SDS011;49533;-34.520;150.798;2023-07-16T11:27:54;1.88;;;1.23;;
63398;SDS011;49533;-34.520;150.798;2023-07-16T11:30:41;3.17;;;1.90;;
63398;SDS011;49533;-34.520;150.798;2023-07-16T11:33:17;2.03;;;1.42;;
63398;SDS011;49533;-34.520;150.798;2023-07-16T11:35:44;1.67;;;1.35;;
63398;SDS011;49533;-34.520;150.798;2023-07-16T11:38:20;1.95;;;1.42;;
63398;SDS011;49533;-34.520;150.798;2023-07-16T11:40:50;2.10;;;1.27;;
63398;SDS011;49533;-34.520;150.798;2023-07-16T11:43:18;3.05;;;1.45;;
63398;SDS011;49533;-34.520;150.798;2023-07-16T11:45:49;1.85;;;1.20;;
63398;SDS011;49533;-34.520;150.798;2023-07-16T11:48:21;3.53;;;1.90;;
63398;SDS011;49533;-34.520;150.798;2023-07-16T11:50:57;2.90;;;1.70;;
63398;SDS011;49533;-34.520;150.798;2023-07-16T11:53:27;2.83;;;1.60;;
63398;SDS011;49533;-34.520;150.798;2023-07-16T11:56:05;2.78;;;1.40;;
63398;SDS011;49533;-34.520;150.798;2023-07-16T11:58:33;6.18;;;1.70;;
63398;SDS011;49533;-34.520;150.798;2023-07-16T12:01:00;4.35;;;1.48;;
63398;SDS011;49533;-34.520;150.798;2023-07-16T12:03:28;3.30;;;1.60;;
63398;SDS011;49533;-34.520;150.798;2023-07-16T12:05:55;3.00;;;1.58;;
63398;SDS011;49533;-34.520;150.798;2023-07-16T12:08:23;3.20;;;1.83;;
63398;SDS011;49533;-34.520;150.798;2023-07-16T12:10:53;2.15;;;1.45;;
63398;SDS011;49533;-34.520;150.798;2023-07-16T12:13:24;3.58;;;1.40;;
63398;SDS011;49533;-34.520;150.798;2023-07-16T12:15:59;2.85;;;1.75;;
63398;SDS011;49533;-34.520;150.798;2023-07-16T12:18:30;5.18;;;1.65;;
63398;SDS011;49533;-34.520;150.798;2023-07-16T12:21:00;3.17;;;1.70;;
63398;SDS011;49533;-34.520;150.798;2023-07-16T12:23:28;2.13;;;1.30;;
63398;SDS011;49533;-34.520;150.798;2023-07-16T12:25:58;1.95;;;1.30;;
63398;SDS011;49533;-34.520;150.798;2023-07-16T12:28:37;2.50;;;1.60;;
63398;SDS011;49533;-34.520;150.798;2023-07-16T12:31:09;2.33;;;1.15;;
63398;SDS011;49533;-34.520;150.798;2023-07-16T12:33:46;3.30;;;1.48;;
63398;SDS011;49533;-34.520;150.798;2023-07-16T12:36:13;2.33;;;1.70;;
63398;SDS011;49533;-34.520;150.798;2023-07-16T12:38:41;2.95;;;1.50;;
63398;SDS011;49533;-34.520;150.798;2023-07-16T12:41:15;2.35;;;1.10;;
63398;SDS011;49533;-34.520;150.798;2023-07-16T12:43:43;4.28;;;1.50;;
63398;SDS011;49533;-34.520;150.798;2023-07-16T12:46:11;2.05;;;1.27;;
63398;SDS011;49533;-34.520;150.798;2023-07-16T12:48:38;2.67;;;1.25;;
63398;SDS011;49533;-34.520;150.798;2023-07-16T12:51:06;1.92;;;1.00;;
63398;SDS011;49533;-34.520;150.798;2023-07-16T12:53:36;3.25;;;1.55;;
63398;SDS011;49533;-34.520;150.798;2023-07-16T12:56:06;1.83;;;1.35;;
63398;SDS011;49533;-34.520;150.798;2023-07-16T12:58:33;4.38;;;1.50;;
63398;SDS011;49533;-34.520;150.798;2023-07-16T13:01:01;1.85;;;1.10;;
63398;SDS011;49533;-34.520;150.798;2023-07-16T13:03:28;2.05;;;1.50;;
63398;SDS011;49533;-34.520;150.798;2023-07-16T13:05:58;3.80;;;1.50;;
63398;SDS011;49533;-34.520;150.798;2023-07-16T13:08:26;2.22;;;1.38;;
63398;SDS011;49533;-34.520;150.798;2023-07-16T13:10:53;2.67;;;1.48;;
63398;SDS011;49533;-34.520;150.798;2023-07-16T13:13:20;2.45;;;1.38;;
63398;SDS011;49533;-34.520;150.798;2023-07-16T13:15:47;4.38;;;1.80;;
63398;SDS011;49533;-34.520;150.798;2023-07-16T13:18:15;3.28;;;1.73;;
63398;SDS011;49533;-34.520;150.798;2023-07-16T13:20:44;3.40;;;1.50;;
63398;SDS011;49533;-34.520;150.798;2023-07-16T13:23:12;2.78;;;1.52;;
63398;SDS011;49533;-34.520;150.798;2023-07-16T13:25:39;2.92;;;1.25;;
63398;SDS011;49533;-34.520;150.798;2023-07-16T13:28:06;1.92;;;1.05;;
63398;SDS011;49533;-34.520;150.798;2023-07-16T13:30:33;3.60;;;1.30;;
63398;SDS011;49533;-34.520;150.798;2023-07-16T13:33:00;2.22;;;1.50;;
63398;SDS011;49533;-34.520;150.798;2023-07-16T13:35:27;2.83;;;1.50;;
63398;SDS011;49533;-34.520;150.798;2023-07-16T13:37:54;2.28;;;1.15;;
63398;SDS011;49533;-34.520;150.798;2023-07-16T13:40:22;3.55;;;1.45;;
63398;SDS011;49533;-34.520;150.798;2023-07-16T13:42:49;3.63;;;1.50;;
63398;SDS011;49533;-34.520;150.798;2023-07-16T13:45:16;1.98;;;1.30;;
63398;SDS011;49533;-34.520;150.798;2023-07-16T13:47:43;4.30;;;1.52;;
63398;SDS011;49533;-34.520;150.798;2023-07-16T13:50:10;2.55;;;1.50;;
63398;SDS011;49533;-34.520;150.798;2023-07-16T13:52:37;4.20;;;1.45;;
63398;SDS011;49533;-34.520;150.798;2023-07-16T13:55:05;4.20;;;1.65;;
63398;SDS011;49533;-34.520;150.798;2023-07-16T13:57:32;3.28;;;1.48;;
63398;SDS011;49533;-34.520;150.798;2023-07-16T13:59:59;3.17;;;1.27;;
63398;SDS011;49533;-34.520;150.798;2023-07-16T14:02:26;1.55;;;1.23;;
63398;SDS011;49533;-34.520;150.798;2023-07-16T14:04:54;3.42;;;1.50;;
63398;SDS011;49533;-34.520;150.798;2023-07-16T14:07:22;3.28;;;1.55;;
63398;SDS011;49533;-34.520;150.798;2023-07-16T14:09:49;3.88;;;1.30;;
63398;SDS011;49533;-34.520;150.798;2023-07-16T14:12:16;3.53;;;1.27;;
63398;SDS011;49533;-34.520;150.798;2023-07-16T14:14:43;2.13;;;0.82;;
63398;SDS011;49533;-34.520;150.798;2023-07-16T14:17:10;1.42;;;1.20;;
63398;SDS011;49533;-34.520;150.798;2023-07-16T14:19:41;4.53;;;1.70;;
63398;SDS011;49533;-34.520;150.798;2023-07-16T14:22:08;4.30;;;1.73;;